Time;durP1;ratioP1;P1;durP2;ratioP2;P2;SDS_P1;SDS_P2;PMS_P1;PMS_P2;Temp;Humidity;BMP_temperature;BMP_pressure;BME280_temperature;BME280_humidity;BME280_pressure;Samples;Min_cycle;Max_cycle;Signal;HPM_P1;HPM_P2
2023/04/26 00:01:20;;;;;;;77.20;12.43;;;14.10;84.90;;;;;;5028133;28;20454;-59
2023/04/26 00:03:46;;;;;;;67.35;11.75;;;14.20;85.00;;;;;;5042388;28;20058;-59
2023/04/26 00:06:13;;;;;;;60.92;11.75;;;14.10;84.90;;;;;;5027294;28;20026;-59
2023/04/26 00:08:39;;;;;;;55.20;9.77;;;14.10;85.00;;;;;;5027101;28;20037;-59
2023/04/26 00:11:04;;;;;;;57.15;11.18;;;14.10;84.90;;;;;;5042460;28;20026;-59
2023/04/26 00:13:30;;;;;;;57.30;10.00;;;14.10;84.90;;;;;;5041046;28;20220;-59
2023/04/26 00:15:57;;;;;;;55.45;10.23;;;14.00;84.90;;;;;;5027259;28;20018;-59
2023/04/26 00:18:23;;;;;;;61.03;10.88;;;14.00;84.90;;;;;;5027181;28;20029;-59
2023/04/26 00:20:49;;;;;;;53.83;10.00;;;14.00;84.90;;;;;;5027009;28;20033;-59
2023/04/26 00:23:14;;;;;;;53.13;9.77;;;13.90;85.00;;;;;;5041793;28;20095;-59
2023/04/26 00:25:40;;;;;;;54.28;9.95;;;13.90;85.10;;;;;;5026964;28;20029;-59
2023/04/26 00:28:06;;;;;;;59.75;10.50;;;13.90;85.20;;;;;;5041866;28;20041;-59
2023/04/26 00:30:33;;;;;;;53.65;9.82;;;13.90;85.20;;;;;;5026985;28;20026;-59
2023/04/26 00:32:58;;;;;;;47.05;8.52;;;13.80;85.20;;;;;;5026802;28;20034;-59
2023/04/26 00:35:24;;;;;;;46.83;8.63;;;13.80;85.30;;;;;;5026725;28;20030;-59
2023/04/26 00:37:50;;;;;;;50.03;8.57;;;13.80;85.30;;;;;;5041772;28;20034;-59
2023/04/26 00:40:16;;;;;;;49.03;9.73;;;13.80;85.40;;;;;;5026605;28;20037;-59
2023/04/26 00:42:41;;;;;;;52.20;9.32;;;13.70;85.30;;;;;;5041559;28;20053;-61
2023/04/26 00:45:07;;;;;;;48.90;9.27;;;13.70;85.50;;;;;;5026688;28;20018;-61
2023/04/26 00:47:33;;;;;;;39.53;8.73;;;13.70;85.50;;;;;;5026429;28;20470;-60
2023/04/26 00:49:59;;;;;;;42.47;7.65;;;13.70;85.50;;;;;;5026322;28;20026;-61
2023/04/26 00:52:25;;;;;;;49.03;8.98;;;13.70;85.50;;;;;;5024871;28;20034;-61
2023/04/26 00:54:52;;;;;;;48.92;8.40;;;13.70;85.50;;;;;;5024873;28;20113;-61
2023/04/26 00:57:17;;;;;;;34.78;7.93;;;13.60;85.60;;;;;;5026379;28;20133;-61
2023/04/26 00:59:43;;;;;;;49.60;8.13;;;13.70;85.70;;;;;;5041591;28;20450;-61
2023/04/26 01:02:09;;;;;;;42.97;7.80;;;13.60;85.70;;;;;;5026089;28;20061;-61
2023/04/26 01:04:36;;;;;;;35.60;7.60;;;13.70;85.80;;;;;;5041436;28;20017;-61
2023/04/26 01:07:01;;;;;;;39.35;7.30;;;13.60;85.70;;;;;;5026173;28;20362;-61
2023/04/26 01:09:28;;;;;;;49.83;7.43;;;13.70;85.90;;;;;;5026273;28;20037;-61
2023/04/26 01:11:56;;;;;;;47.30;8.32;;;13.50;85.70;;;;;;5025960;28;20030;-61
2023/04/26 01:14:22;;;;;;;41.40;7.60;;;13.60;86.50;;;;;;5040827;28;20022;-61
2023/04/26 01:16:48;;;;;;;26.52;6.47;;;13.60;85.90;;;;;;5041212;28;20437;-61
2023/04/26 01:19:15;;;;;;;31.88;7.15;;;13.50;85.90;;;;;;5040956;28;20093;-61
2023/04/26 01:21:41;;;;;;;44.55;7.40;;;13.60;86.00;;;;;;5025902;28;20026;-61
2023/04/26 01:24:08;;;;;;;27.27;6.47;;;13.40;86.00;;;;;;5040623;28;20036;-61
2023/04/26 01:26:33;;;;;;;35.03;7.18;;;13.40;85.90;;;;;;5025846;28;20063;-61
2023/04/26 01:29:00;;;;;;;32.55;6.10;;;13.50;86.10;;;;;;5024407;28;20094;-61
2023/04/26 01:31:26;;;;;;;36.08;7.00;;;13.40;86.10;;;;;;5025938;28;20025;-62
2023/04/26 01:33:51;;;;;;;41.47;6.80;;;13.40;86.10;;;;;;5025784;28;20038;-61
2023/04/26 01:36:17;;;;;;;24.38;5.93;;;13.50;86.10;;;;;;5025700;28;20033;-59
2023/04/26 01:38:43;;;;;;;38.60;6.97;;;13.30;86.10;;;;;;5025758;28;20041;-59
2023/04/26 01:41:08;;;;;;;29.75;6.38;;;13.30;86.20;;;;;;5040697;28;20034;-59
2023/04/26 01:43:34;;;;;;;37.50;6.97;;;13.50;86.30;;;;;;5025435;28;20038;-59
2023/04/26 01:46:00;;;;;;;36.25;7.28;;;13.20;86.20;;;;;;5025746;28;20067;-59
2023/04/26 01:48:25;;;;;;;30.20;6.65;;;13.20;86.30;;;;;;5024366;28;20029;-59
2023/04/26 01:50:51;;;;;;;39.58;5.32;;;13.30;86.30;;;;;;5025525;28;20172;-59
2023/04/26 01:53:17;;;;;;;29.67;6.80;;;13.20;86.20;;;;;;5025314;28;20053;-59
2023/04/26 01:55:42;;;;;;;26.77;6.40;;;13.20;86.80;;;;;;5025537;28;20033;-59
2023/04/26 01:58:08;;;;;;;25.75;6.38;;;13.30;86.20;;;;;;5025444;28;20048;-61
2023/04/26 02:00:33;;;;;;;27.95;6.70;;;13.30;86.90;;;;;;5025346;28;20084;-61
2023/04/26 02:02:59;;;;;;;26.02;6.72;;;13.20;86.20;;;;;;5025216;28;20053;-61
2023/04/26 02:05:25;;;;;;;26.77;6.50;;;13.20;86.20;;;;;;5025259;28;20046;-58
2023/04/26 02:07:51;;;;;;;28.25;6.35;;;13.40;86.40;;;;;;5025428;28;20030;-59
2023/04/26 02:10:16;;;;;;;25.88;6.13;;;13.40;86.60;;;;;;5025356;28;20053;-61
2023/04/26 02:12:42;;;;;;;25.00;5.53;;;13.20;86.60;;;;;;5024985;28;20038;-61
2023/04/26 02:15:08;;;;;;;33.15;5.90;;;13.20;86.60;;;;;;5025037;28;20026;-61
2023/04/26 02:17:34;;;;;;;24.70;5.90;;;13.10;86.60;;;;;;5025416;28;20049;-61
2023/04/26 02:19:59;;;;;;;20.75;5.55;;;13.10;86.80;;;;;;5024929;28;20030;-61
2023/04/26 02:22:25;;;;;;;24.33;5.38;;;13.10;87.60;;;;;;5025111;28;20049;-62
2023/04/26 02:24:51;;;;;;;22.27;6.07;;;13.30;87.10;;;;;;5025227;28;20034;-61
2023/04/26 02:27:17;;;;;;;19.40;5.72;;;13.10;87.00;;;;;;5025067;28;20049;-62
2023/04/26 02:29:43;;;;;;;13.80;4.70;;;13.00;87.10;;;;;;5024907;28;20021;-61
2023/04/26 02:32:08;;;;;;;22.65;5.00;;;13.00;87.20;;;;;;5024754;28;20026;-61
2023/04/26 02:34:35;;;;;;;21.38;5.15;;;13.00;87.30;;;;;;5024869;28;20038;-61
2023/04/26 02:37:01;;;;;;;18.95;4.88;;;13.00;87.30;;;;;;5026955;28;20081;-61
2023/04/26 02:39:27;;;;;;;17.05;5.40;;;13.00;87.30;;;;;;5029061;28;20073;-61
2023/04/26 02:41:53;;;;;;;19.13;4.85;;;13.10;87.60;;;;;;5044120;28;20382;-61
2023/04/26 02:44:18;;;;;;;17.13;4.75;;;12.90;87.50;;;;;;5043738;28;20034;-61
2023/04/26 02:46:44;;;;;;;18.75;4.93;;;12.90;87.50;;;;;;5028781;28;20025;-61
2023/04/26 02:49:09;;;;;;;14.38;5.03;;;13.10;87.70;;;;;;5028635;28;20165;-61
2023/04/26 02:51:35;;;;;;;14.77;4.45;;;12.90;88.30;;;;;;5028534;28;20053;-61
2023/04/26 02:54:01;;;;;;;20.20;4.97;;;13.00;87.80;;;;;;5028378;28;20073;-61
2023/04/26 02:56:27;;;;;;;12.93;4.28;;;13.00;87.80;;;;;;5043826;28;20034;-61
2023/04/26 02:58:53;;;;;;;29.65;4.70;;;13.00;87.80;;;;;;5028481;28;20060;-61
2023/04/26 03:01:18;;;;;;;12.20;4.43;;;12.80;87.80;;;;;;5028660;28;20030;-61
2023/04/26 03:03:44;;;;;;;12.18;4.07;;;12.80;87.90;;;;;;5028226;28;20087;-61
2023/04/26 03:06:09;;;;;;;15.30;4.28;;;13.00;87.80;;;;;;5028551;28;20042;-61
2023/04/26 03:08:35;;;;;;;14.80;4.60;;;13.00;87.70;;;;;;5028484;28;20033;-61
2023/04/26 03:11:01;;;;;;;13.85;4.45;;;12.80;88.30;;;;;;5043512;28;20374;-61
2023/04/26 03:13:27;;;;;;;11.75;3.55;;;12.80;87.70;;;;;;5028264;28;20160;-61
2023/04/26 03:15:53;;;;;;;12.18;4.10;;;13.00;87.90;;;;;;5028282;28;20034;-61
2023/04/26 03:18:18;;;;;;;12.50;3.80;;;12.80;87.80;;;;;;5028147;28;20116;-61
2023/04/26 03:20:47;;;;;;;20.00;4.22;;;12.70;88.00;;;;;;5027909;28;20026;-61
2023/04/26 03:23:12;;;;;;;17.42;4.80;;;12.70;88.60;;;;;;5027910;28;20445;-61
2023/04/26 03:25:38;;;;;;;12.48;3.67;;;12.70;88.00;;;;;;5029237;28;20030;-61
2023/04/26 03:28:04;;;;;;;17.75;5.22;;;12.70;88.10;;;;;;5030035;28;20026;-61
2023/04/26 03:30:29;;;;;;;12.38;5.40;;;12.80;88.20;;;;;;5028321;28;20046;-61
2023/04/26 03:32:56;;;;;;;14.35;5.57;;;12.70;88.30;;;;;;5028067;28;20493;-61
2023/04/26 03:35:21;;;;;;;16.48;7.38;;;12.60;88.30;;;;;;5027751;28;20033;-61
2023/04/26 03:37:47;;;;;;;13.10;5.82;;;12.80;88.50;;;;;;5027908;28;20110;-61
2023/04/26 03:40:13;;;;;;;34.83;7.57;;;12.60;88.30;;;;;;5027632;28;20033;-61
2023/04/26 03:42:38;;;;;;;21.95;6.40;;;12.60;88.40;;;;;;5026676;28;20065;-61
2023/04/26 03:45:04;;;;;;;21.05;5.90;;;12.70;88.50;;;;;;5027925;28;20026;-61
2023/04/26 03:47:30;;;;;;;15.50;5.30;;;12.60;88.50;;;;;;5028125;28;20033;-61
2023/04/26 03:49:56;;;;;;;16.42;5.88;;;12.70;88.60;;;;;;5027879;28;20045;-61
2023/04/26 03:52:22;;;;;;;27.92;6.30;;;12.50;88.50;;;;;;5027700;28;20030;-61
2023/04/26 03:54:49;;;;;;;25.90;6.10;;;12.70;88.60;;;;;;5027686;28;20053;-61
2023/04/26 03:57:15;;;;;;;35.80;6.75;;;12.60;88.60;;;;;;5027550;28;20032;-61
2023/04/26 03:59:41;;;;;;;29.90;6.47;;;12.70;88.80;;;;;;5027650;28;20057;-61
2023/04/26 04:02:07;;;;;;;26.83;6.78;;;12.50;88.70;;;;;;5042475;28;20045;-61
2023/04/26 04:04:33;;;;;;;43.70;8.00;;;12.50;88.60;;;;;;5025934;28;20032;-61
2023/04/26 04:06:58;;;;;;;32.72;8.82;;;12.60;88.80;;;;;;5027310;28;20053;-61
2023/04/26 04:09:24;;;;;;;31.33;8.15;;;12.50;88.90;;;;;;5027262;28;20025;-61
2023/04/26 04:11:50;;;;;;;32.45;7.38;;;12.50;88.80;;;;;;5027228;28;20056;-61
2023/04/26 04:14:16;;;;;;;29.92;8.00;;;12.60;88.90;;;;;;5027326;28;20296;-61
2023/04/26 04:16:41;;;;;;;29.88;8.93;;;12.40;88.90;;;;;;5042130;28;20038;-61
2023/04/26 04:19:07;;;;;;;30.67;7.47;;;12.40;89.60;;;;;;5042417;28;20025;-57
2023/04/26 04:21:33;;;;;;;23.67;7.88;;;12.40;89.00;;;;;;5042265;28;20382;-56
2023/04/26 04:23:59;;;;;;;24.40;7.68;;;12.60;89.20;;;;;;5026950;28;20045;-57
2023/04/26 04:26:25;;;;;;;23.30;7.45;;;12.50;89.10;;;;;;5026880;28;20029;-57
2023/04/26 04:28:50;;;;;;;25.33;8.43;;;12.30;89.00;;;;;;5042127;28;20052;-57
2023/04/26 04:31:16;;;;;;;35.03;8.05;;;12.40;89.20;;;;;;5041871;28;20125;-57
2023/04/26 04:33:41;;;;;;;25.05;7.00;;;12.30;89.20;;;;;;5042073;28;20083;-57
2023/04/26 04:36:08;;;;;;;28.70;8.05;;;12.30;89.20;;;;;;5026815;28;20036;-57
2023/04/26 04:38:34;;;;;;;20.85;7.20;;;12.30;89.00;;;;;;5026797;28;20026;-57
2023/04/26 04:41:00;;;;;;;18.05;6.55;;;12.30;89.00;;;;;;5041666;28;20065;-57
2023/04/26 04:43:26;;;;;;;21.13;6.57;;;12.30;89.00;;;;;;5026406;28;20034;-57
2023/04/26 04:45:52;;;;;;;23.13;6.60;;;12.30;89.20;;;;;;5026783;28;20109;-57
2023/04/26 04:48:20;;;;;;;24.23;7.22;;;12.30;89.20;;;;;;5025033;28;20057;-57
2023/04/26 04:50:45;;;;;;;21.65;6.88;;;12.30;89.20;;;;;;5026420;28;20101;-57
2023/04/26 04:53:15;;;;;;;19.63;6.55;;;12.20;90.00;;;;;;5026474;28;20042;-57
2023/04/26 04:55:40;;;;;;;17.90;6.88;;;12.20;89.40;;;;;;5026537;28;20038;-57
2023/04/26 04:58:06;;;;;;;22.50;6.90;;;12.20;89.70;;;;;;5024740;28;20050;-57
2023/04/26 05:00:32;;;;;;;19.17;6.40;;;12.20;89.70;;;;;;5040868;28;20032;-57
2023/04/26 05:02:58;;;;;;;22.63;6.22;;;12.30;89.90;;;;;;5026030;28;20498;-57
2023/04/26 05:05:23;;;;;;;16.75;6.97;;;12.30;90.00;;;;;;5026326;28;20030;-57
2023/04/26 05:07:49;;;;;;;18.70;7.05;;;12.20;89.80;;;;;;5041395;28;20470;-57
2023/04/26 05:10:15;;;;;;;22.83;6.47;;;12.10;89.80;;;;;;5026111;28;20044;-57
2023/04/26 05:12:40;;;;;;;15.65;6.30;;;12.20;89.80;;;;;;5026019;28;20029;-57
2023/04/26 05:15:06;;;;;;;21.33;6.15;;;12.10;89.80;;;;;;5025920;28;20029;-57
2023/04/26 05:17:32;;;;;;;15.77;6.85;;;12.10;90.00;;;;;;5026152;28;20053;-57
2023/04/26 05:19:58;;;;;;;20.00;6.43;;;12.30;89.90;;;;;;5026056;28;20032;-57
2023/04/26 05:22:23;;;;;;;17.40;6.65;;;12.30;89.70;;;;;;5025773;28;20391;-57
2023/04/26 05:24:49;;;;;;;15.15;6.22;;;12.10;89.60;;;;;;5026029;28;20036;-57
2023/04/26 05:27:15;;;;;;;16.95;6.10;;;12.10;89.60;;;;;;5024673;28;20497;-57
2023/04/26 05:29:40;;;;;;;13.75;5.95;;;12.10;89.60;;;;;;5025973;28;20125;-57
2023/04/26 05:32:06;;;;;;;14.82;6.15;;;12.20;89.70;;;;;;5025853;28;20371;-57
2023/04/26 05:34:32;;;;;;;16.17;5.80;;;12.20;89.70;;;;;;5025838;28;20022;-57
2023/04/26 05:36:57;;;;;;;13.90;6.07;;;12.10;89.60;;;;;;5025579;28;20041;-57
2023/04/26 05:39:23;;;;;;;14.55;5.50;;;12.10;89.70;;;;;;5040750;28;20030;-56
2023/04/26 05:41:48;;;;;;;16.45;6.60;;;12.10;89.70;;;;;;5025293;28;20026;-57
2023/04/26 05:44:14;;;;;;;15.75;5.97;;;12.10;89.80;;;;;;5025564;28;20150;-57
2023/04/26 05:46:40;;;;;;;17.70;6.38;;;12.20;89.90;;;;;;5025657;28;20030;-57
2023/04/26 05:49:06;;;;;;;16.85;6.30;;;12.20;89.90;;;;;;5023906;28;20343;-57
2023/04/26 05:51:31;;;;;;;17.13;6.47;;;12.10;89.70;;;;;;5025454;28;20034;-57
2023/04/26 05:53:57;;;;;;;12.82;5.93;;;12.10;89.80;;;;;;5025476;28;20068;-56
2023/04/26 05:56:23;;;;;;;14.85;6.03;;;12.10;89.70;;;;;;5025474;28;20029;-57
2023/04/26 05:58:49;;;;;;;13.45;6.38;;;12.20;89.70;;;;;;5025494;28;20034;-57
2023/04/26 06:01:15;;;;;;;13.13;5.55;;;12.10;89.70;;;;;;5025197;28;20030;-57
2023/04/26 06:03:40;;;;;;;18.25;6.18;;;12.10;89.70;;;;;;5024995;28;20037;-57
2023/04/26 06:06:06;;;;;;;15.77;5.35;;;12.10;89.70;;;;;;5039975;28;20073;-57
2023/04/26 06:08:32;;;;;;;12.90;5.88;;;12.10;89.70;;;;;;5025437;28;20026;-57
2023/04/26 06:10:58;;;;;;;14.98;5.78;;;12.00;89.70;;;;;;5024122;28;20034;-58
2023/04/26 06:13:23;;;;;;;11.60;5.88;;;12.10;89.80;;;;;;5024896;28;20045;-57
2023/04/26 06:15:49;;;;;;;11.75;6.00;;;12.20;89.70;;;;;;5027960;28;20075;-57
2023/04/26 06:18:15;;;;;;;18.15;6.57;;;12.10;89.80;;;;;;5043784;28;20029;-57
2023/04/26 06:20:41;;;;;;;14.93;5.60;;;12.10;89.70;;;;;;5042821;28;20037;-57
2023/04/26 06:23:06;;;;;;;14.32;5.80;;;12.20;89.80;;;;;;5040582;28;20101;-57
2023/04/26 06:25:33;;;;;;;12.20;5.50;;;12.10;89.70;;;;;;5042723;28;20028;-57
2023/04/26 06:27:59;;;;;;;13.48;5.60;;;12.20;90.10;;;;;;5043078;28;20427;-57
2023/04/26 06:30:25;;;;;;;15.27;5.38;;;12.20;89.60;;;;;;5044380;28;20042;-57
2023/04/26 06:32:50;;;;;;;18.33;6.45;;;12.10;89.60;;;;;;5044395;28;20048;-57
2023/04/26 06:35:16;;;;;;;12.40;5.45;;;12.20;89.70;;;;;;5049300;28;20041;-57
2023/04/26 06:37:42;;;;;;;19.50;5.43;;;12.20;90.10;;;;;;5044244;28;20124;-57
2023/04/26 06:40:08;;;;;;;15.95;5.35;;;12.20;89.50;;;;;;5044217;28;20029;-57
2023/04/26 06:42:33;;;;;;;11.30;5.30;;;12.20;89.50;;;;;;5047290;28;20025;-57
2023/04/26 06:44:59;;;;;;;16.92;5.65;;;12.30;89.50;;;;;;5043313;28;20461;-57
2023/04/26 06:47:25;;;;;;;14.50;5.82;;;12.20;89.40;;;;;;5044087;28;20045;-57
2023/04/26 06:49:50;;;;;;;20.30;6.18;;;12.20;89.50;;;;;;5044345;28;20411;-57
2023/04/26 06:52:16;;;;;;;17.70;5.15;;;12.20;89.40;;;;;;5053291;28;20033;-57
2023/04/26 06:54:41;;;;;;;10.07;4.47;;;12.40;89.60;;;;;;5054903;28;20033;-57
2023/04/26 06:57:07;;;;;;;9.85;4.95;;;12.40;89.50;;;;;;5044373;28;20105;-57
2023/04/26 06:59:34;;;;;;;13.68;5.22;;;12.30;90.00;;;;;;5043811;28;20059;-57
2023/04/26 07:02:01;;;;;;;26.17;5.97;;;12.30;89.40;;;;;;5050444;28;20438;-57
2023/04/26 07:04:26;;;;;;;13.82;5.53;;;12.50;89.40;;;;;;5042533;28;20029;-57
2023/04/26 07:06:52;;;;;;;27.05;6.15;;;12.50;89.50;;;;;;5043553;28;20029;-57
2023/04/26 07:09:17;;;;;;;15.85;5.68;;;12.50;89.50;;;;;;5043660;28;20112;-57
2023/04/26 07:11:46;;;;;;;15.30;5.07;;;12.40;89.30;;;;;;5043745;28;20033;-57
2023/04/26 07:14:11;;;;;;;14.60;5.22;;;12.60;89.30;;;;;;5043873;28;20149;-57
2023/04/26 07:16:37;;;;;;;12.77;4.53;;;12.40;89.20;;;;;;5042343;28;20493;-57
2023/04/26 07:19:03;;;;;;;16.10;5.60;;;12.50;89.00;;;;;;5040704;28;20043;-57
2023/04/26 07:21:28;;;;;;;21.00;6.07;;;12.60;89.00;;;;;;5042827;28;20033;-57
2023/04/26 07:23:57;;;;;;;17.42;4.95;;;12.60;89.80;;;;;;5042453;28;20413;-57
2023/04/26 07:26:23;;;;;;;14.70;4.72;;;12.60;89.30;;;;;;5041085;28;20033;-57
2023/04/26 07:28:52;;;;;;;10.68;5.13;;;12.70;89.30;;;;;;5042587;28;20036;-57
2023/04/26 07:31:18;;;;;;;21.85;5.05;;;12.60;89.10;;;;;;5046619;28;20037;-57
2023/04/26 07:33:44;;;;;;;14.20;4.88;;;12.60;89.00;;;;;;5047528;28;20029;-57
2023/04/26 07:36:09;;;;;;;17.10;5.43;;;12.70;89.00;;;;;;5045585;28;20030;-57
2023/04/26 07:38:35;;;;;;;21.48;5.28;;;12.60;88.90;;;;;;5042491;28;20055;-57
2023/04/26 07:41:00;;;;;;;15.73;5.72;;;12.60;89.10;;;;;;5044050;28;20034;-57
2023/04/26 07:43:26;;;;;;;20.77;5.97;;;12.70;89.30;;;;;;5045851;28;20052;-57
2023/04/26 07:45:52;;;;;;;26.50;6.57;;;12.80;89.40;;;;;;5047424;28;20116;-57
2023/04/26 07:48:18;;;;;;;25.33;5.43;;;12.80;89.40;;;;;;5047068;28;20021;-57
2023/04/26 07:50:44;;;;;;;16.42;5.43;;;12.70;89.20;;;;;;5045713;28;20025;-57
2023/04/26 07:53:09;;;;;;;26.42;6.40;;;12.90;89.20;;;;;;5047292;28;20029;-57
2023/04/26 07:55:36;;;;;;;26.90;6.47;;;13.00;89.20;;;;;;5047407;28;20052;-57
2023/04/26 07:58:02;;;;;;;37.42;6.07;;;12.80;89.00;;;;;;5047468;28;20059;-57
2023/04/26 08:00:28;;;;;;;35.15;7.25;;;13.00;89.20;;;;;;5047158;28;20033;-57
2023/04/26 08:02:54;;;;;;;30.27;7.10;;;12.90;89.10;;;;;;5047290;28;20022;-57
2023/04/26 08:05:20;;;;;;;35.05;6.65;;;12.90;89.00;;;;;;5047202;28;20040;-57
2023/04/26 08:07:46;;;;;;;22.83;6.10;;;12.90;88.80;;;;;;5046829;28;20028;-57
2023/04/26 08:10:11;;;;;;;37.70;7.05;;;13.10;89.50;;;;;;5046889;28;20034;-57
2023/04/26 08:12:37;;;;;;;32.05;6.97;;;13.00;88.60;;;;;;5047042;28;20443;-57
2023/04/26 08:15:04;;;;;;;31.92;6.97;;;13.20;88.70;;;;;;5046922;28;20414;-57
2023/04/26 08:17:30;;;;;;;24.98;6.75;;;13.00;88.60;;;;;;5048011;28;20078;-57
2023/04/26 08:19:56;;;;;;;39.13;6.60;;;13.00;88.60;;;;;;5045204;28;20125;-57
2023/04/26 08:22:23;;;;;;;19.60;5.75;;;13.00;88.60;;;;;;5046660;28;20442;-57
2023/04/26 08:24:49;;;;;;;26.58;5.93;;;13.20;88.70;;;;;;5046697;28;20414;-57
2023/04/26 08:27:15;;;;;;;25.52;6.78;;;13.00;88.60;;;;;;5046648;28;20056;-56
2023/04/26 08:29:41;;;;;;;22.13;5.85;;;13.10;88.80;;;;;;5046805;28;20032;-57
2023/04/26 08:32:07;;;;;;;34.33;7.30;;;13.10;88.70;;;;;;5046552;28;20033;-57
2023/04/26 08:34:32;;;;;;;34.70;7.78;;;13.10;88.70;;;;;;5045894;28;20079;-57
2023/04/26 08:36:58;;;;;;;42.70;7.20;;;13.10;88.60;;;;;;5046689;28;20060;-56
2023/04/26 08:39:24;;;;;;;33.28;6.57;;;13.10;88.70;;;;;;5039542;28;20081;-56
2023/04/26 08:41:51;;;;;;;31.77;6.72;;;13.10;88.70;;;;;;5040420;28;20034;-56
2023/04/26 08:44:18;;;;;;;33.10;7.20;;;13.10;88.60;;;;;;5045373;28;20030;-56
2023/04/26 08:46:50;;;;;;;21.77;6.35;;;13.30;88.70;;;;;;5032155;28;20030;-56
2023/04/26 08:49:34;;;;;;;28.70;6.68;;;13.10;89.40;;;;;;5028350;28;20044;-56
2023/04/26 08:52:00;;;;;;;33.85;6.60;;;13.20;88.80;;;;;;5026708;28;20030;-56
2023/04/26 08:54:26;;;;;;;39.30;7.07;;;13.30;88.80;;;;;;5024936;28;20121;-57
2023/04/26 08:56:52;;;;;;;38.55;6.28;;;13.30;88.90;;;;;;5025111;28;20513;-57
2023/04/26 08:59:18;;;;;;;46.20;8.63;;;13.20;88.80;;;;;;5033246;28;20174;-57
2023/04/26 09:01:44;;;;;;;32.38;6.93;;;13.20;89.00;;;;;;5039436;28;20146;-56
2023/04/26 09:04:10;;;;;;;26.38;6.25;;;13.20;88.80;;;;;;5052416;28;20025;-57
2023/04/26 09:06:36;;;;;;;25.17;5.95;;;13.30;89.40;;;;;;5037794;28;20048;-56
2023/04/26 09:09:03;;;;;;;32.35;6.55;;;13.30;88.70;;;;;;5043381;28;20120;-56
2023/04/26 09:11:29;;;;;;;36.58;7.05;;;13.40;88.60;;;;;;5042497;28;20053;-57
2023/04/26 09:13:55;;;;;;;22.33;6.45;;;13.40;88.50;;;;;;5056166;28;20396;-56
2023/04/26 09:16:34;;;;;;;35.35;7.30;;;13.40;88.40;;;;;;5045482;28;20113;-56
2023/04/26 09:19:00;;;;;;;29.10;6.90;;;13.40;88.30;;;;;;5036415;28;20054;-56
2023/04/26 09:21:27;;;;;;;40.85;7.10;;;13.60;88.30;;;;;;5049370;28;20048;-56
2023/04/26 09:24:03;;;;;;;29.02;7.22;;;13.40;88.00;;;;;;5043497;28;20022;-56
2023/04/26 09:26:28;;;;;;;22.70;6.32;;;13.60;88.20;;;;;;5071397;28;20034;-56
2023/04/26 09:29:12;;;;;;;37.25;7.45;;;13.50;87.90;;;;;;5032683;28;20025;-56
2023/04/26 09:31:43;;;;;;;25.15;7.00;;;13.50;87.70;;;;;;5050198;28;20105;-57
2023/04/26 09:34:09;;;;;;;24.23;7.28;;;13.60;87.80;;;;;;5035795;28;20049;-55
2023/04/26 09:36:51;;;;;;;37.88;8.57;;;13.60;87.80;;;;;;5029269;28;20030;-55
2023/04/26 09:39:30;;;;;;;32.83;7.85;;;13.60;87.80;;;;;;5027301;28;20077;-55
2023/04/26 09:41:56;;;;;;;40.80;8.27;;;13.60;87.60;;;;;;5046416;28;20068;-55
2023/04/26 09:44:25;;;;;;;37.97;7.72;;;13.70;87.70;;;;;;5053690;28;20041;-56
2023/04/26 09:47:00;;;;;;;23.90;7.07;;;13.70;87.60;;;;;;5058992;28;20081;-56
2023/04/26 09:49:31;;;;;;;36.67;7.93;;;13.80;87.50;;;;;;5041185;28;20025;-55
2023/04/26 09:52:04;;;;;;;37.20;8.18;;;13.80;87.30;;;;;;5023678;28;20494;-56
2023/04/26 09:54:50;;;;;;;82.20;11.85;;;13.80;87.60;;;;;;5023378;28;20048;-55
2023/04/26 09:57:18;;;;;;;66.47;11.13;;;13.80;88.10;;;;;;5033558;28;20568;-56
2023/04/26 09:59:51;;;;;;;74.35;11.95;;;13.90;88.30;;;;;;5040892;28;20029;-56
2023/04/26 10:02:35;;;;;;;63.75;9.73;;;13.90;88.00;;;;;;5027716;28;20061;-55
2023/04/26 10:05:01;;;;;;;70.72;11.27;;;13.90;87.40;;;;;;5030225;28;20022;-55
2023/04/26 10:07:27;;;;;;;48.90;9.45;;;13.90;87.20;;;;;;5034655;28;20040;-56
2023/04/26 10:09:53;;;;;;;55.40;9.25;;;14.00;87.20;;;;;;5026178;28;20049;-54
2023/04/26 10:12:19;;;;;;;90.65;10.18;;;14.00;87.10;;;;;;5033368;28;20048;-55
2023/04/26 10:14:45;;;;;;;51.38;8.73;;;14.00;86.90;;;;;;5037356;28;20077;-55
2023/04/26 10:17:11;;;;;;;173.00;20.52;;;14.10;87.00;;;;;;5025117;28;20082;-56
2023/04/26 10:19:38;;;;;;;110.00;14.52;;;14.10;86.80;;;;;;5038577;28;20117;-56
2023/04/26 10:22:08;;;;;;;83.93;11.95;;;14.10;86.80;;;;;;5026738;28;20026;-55
2023/04/26 10:24:37;;;;;;;65.00;12.63;;;14.20;86.70;;;;;;5040154;28;20018;-55
2023/04/26 10:27:03;;;;;;;57.58;10.02;;;14.20;86.40;;;;;;5026481;28;20109;-55
2023/04/26 10:29:53;;;;;;;66.15;10.23;;;14.20;86.30;;;;;;5043770;28;20021;-55
2023/04/26 10:32:22;;;;;;;71.32;12.32;;;14.20;86.20;;;;;;5023998;28;20037;-56
2023/04/26 10:35:13;;;;;;;89.05;13.23;;;14.30;86.10;;;;;;5038293;28;20048;-55
2023/04/26 10:38:00;;;;;;;60.28;11.00;;;14.10;85.70;;;;;;5032551;28;20025;-55
2023/04/26 10:40:38;;;;;;;90.47;12.32;;;14.40;85.90;;;;;;5024496;28;20073;-55
2023/04/26 10:43:13;;;;;;;76.93;11.23;;;14.40;85.80;;;;;;5040296;28;20472;-55
2023/04/26 10:45:39;;;;;;;52.15;10.15;;;14.40;85.10;;;;;;5042798;28;20037;-56
2023/04/26 10:48:17;;;;;;;72.57;10.93;;;14.50;84.80;;;;;;5045784;28;20026;-55
2023/04/26 10:51:01;;;;;;;60.85;11.05;;;14.50;84.80;;;;;;5031075;28;20045;-55
2023/04/26 10:53:31;;;;;;;68.65;11.20;;;14.60;84.40;;;;;;5040192;28;20029;-55
2023/04/26 10:55:56;;;;;;;66.20;10.43;;;14.60;84.30;;;;;;5033667;28;20062;-55
2023/04/26 10:58:29;;;;;;;66.30;9.52;;;14.60;84.10;;;;;;5048244;28;20029;-55
2023/04/26 11:01:12;;;;;;;74.43;10.88;;;14.60;84.00;;;;;;5050440;28;20060;-55
2023/04/26 11:03:37;;;;;;;58.05;9.27;;;14.70;83.80;;;;;;5034643;28;20029;-55
2023/04/26 11:06:08;;;;;;;58.17;9.07;;;14.90;83.60;;;;;;5042807;28;20083;-56
2023/04/26 11:08:35;;;;;;;63.97;8.65;;;14.70;83.50;;;;;;5043344;28;20029;-55
2023/04/26 11:11:01;;;;;;;56.97;8.18;;;14.70;83.20;;;;;;5019921;28;20099;-56
2023/04/26 11:13:30;;;;;;;43.35;7.82;;;14.70;82.90;;;;;;5041199;28;20033;-55
2023/04/26 11:16:02;;;;;;;50.75;7.45;;;14.80;82.70;;;;;;5040732;28;20033;-55
2023/04/26 11:18:28;;;;;;;50.28;8.02;;;14.80;82.40;;;;;;5039592;28;20046;-55
2023/04/26 11:20:54;;;;;;;42.25;8.07;;;14.80;82.10;;;;;;5038135;28;20029;-55
2023/04/26 11:23:20;;;;;;;38.28;7.05;;;14.90;81.90;;;;;;5045610;28;20033;-56
2023/04/26 11:25:45;;;;;;;262.88;27.92;;;15.00;81.80;;;;;;5038623;28;20030;-55
2023/04/26 11:28:11;;;;;;;36.38;7.03;;;15.10;81.10;;;;;;5045156;28;20021;-56
2023/04/26 11:30:38;;;;;;;36.05;6.97;;;15.10;80.70;;;;;;5044478;28;20037;-55
2023/04/26 11:33:04;;;;;;;36.83;7.28;;;15.20;80.40;;;;;;5046585;28;20031;-55
2023/04/26 11:35:32;;;;;;;39.20;6.80;;;15.20;79.80;;;;;;5047305;28;20095;-55
2023/04/26 11:37:59;;;;;;;42.33;6.47;;;15.20;79.10;;;;;;5046182;28;20423;-55
2023/04/26 11:40:27;;;;;;;43.78;6.00;;;15.30;78.90;;;;;;5047290;28;20048;-55
2023/04/26 11:42:53;;;;;;;32.85;5.28;;;15.30;79.20;;;;;;5047142;28;20474;-55
2023/04/26 11:45:19;;;;;;;38.35;6.03;;;15.30;78.30;;;;;;5047272;28;20064;-55
2023/04/26 11:47:44;;;;;;;24.38;4.57;;;15.40;78.90;;;;;;5046978;28;20442;-55
2023/04/26 11:50:10;;;;;;;32.70;5.80;;;15.40;78.60;;;;;;5045713;28;20045;-55
2023/04/26 11:52:37;;;;;;;44.00;5.32;;;15.50;78.20;;;;;;5046298;28;20049;-55
2023/04/26 11:55:06;;;;;;;36.50;5.85;;;15.50;78.00;;;;;;5047501;28;20041;-55
2023/04/26 11:57:32;;;;;;;37.17;5.07;;;15.60;77.50;;;;;;5047693;28;20053;-55
2023/04/26 12:00:11;;;;;;;38.42;5.75;;;15.60;77.20;;;;;;5047211;28;20017;-55
2023/04/26 12:02:37;;;;;;;54.88;6.80;;;15.60;76.90;;;;;;5047120;28;20034;-55
2023/04/26 12:05:02;;;;;;;32.40;5.22;;;15.70;76.30;;;;;;5047087;28;20120;-55
2023/04/26 12:07:35;;;;;;;32.45;6.20;;;15.70;76.00;;;;;;5047118;28;20029;-55
2023/04/26 12:10:14;;;;;;;42.92;5.88;;;15.80;76.20;;;;;;5044215;28;20052;-55
2023/04/26 12:12:46;;;;;;;48.40;5.90;;;15.80;76.30;;;;;;5046700;28;20038;-55
2023/04/26 12:15:12;;;;;;;32.17;5.28;;;15.80;75.70;;;;;;5046478;28;20026;-55
2023/04/26 12:17:38;;;;;;;39.17;5.65;;;15.80;75.60;;;;;;5046762;28;20083;-55
2023/04/26 12:20:10;;;;;;;37.17;4.97;;;15.90;74.60;;;;;;5046507;28;20357;-55
2023/04/26 12:22:35;;;;;;;41.35;5.93;;;15.90;74.80;;;;;;5038687;28;20041;-55
2023/04/26 12:25:05;;;;;;;84.47;11.57;;;15.90;74.20;;;;;;5045515;28;20076;-55
2023/04/26 12:27:31;;;;;;;76.60;9.93;;;15.90;74.60;;;;;;5041837;28;20052;-55
2023/04/26 12:29:56;;;;;;;63.30;8.57;;;16.00;74.80;;;;;;5041528;28;20021;-55
2023/04/26 12:32:22;;;;;;;48.88;7.32;;;16.00;74.20;;;;;;5036112;28;20335;-55
2023/04/26 12:34:48;;;;;;;54.20;9.20;;;16.00;74.30;;;;;;5040916;28;20454;-55